This is the latest recevied weather packets stored in our database for station/object R2AJV-13. If no packets are shown the sender has not sent any weather packets the latest 10 day(s).
| Time | Temp. | Humidity | Pressure | Rain* | Wind** | Luminosity | Snow |
|---|---|---|---|---|---|---|---|
| 1778048172 | 13.33° C | 89% | 993.5 hPa | 0 mm | - | - | - |
| 1778047262 | 14.44° C | 85% | 993.7 hPa | 0 mm | - | - | - |
| 1778045447 | 15° C | 77% | 993.9 hPa | 0 mm | - | - | - |
| 1778044536 | 15.56° C | 74% | 993.6 hPa | 0 mm | - | - | - |
| 1778043665 | 15.56° C | 73% | 993.3 hPa | 0 mm | - | - | - |
| 1778042759 | 15.56° C | 73% | 993.1 hPa | 0 mm | - | - | - |
| 1778041848 | 15° C | 77% | 992.9 hPa | 0 mm | - | - | - |
| 1777791642 | 16.11° C | 59% | 998.1 hPa | 0 mm | - | - | - |
| 1777790732 | 16.11° C | 59% | 998.1 hPa | 0 mm | - | - | - |
| 1777789827 | 15.56° C | 60% | 998.1 hPa | 0 mm | - | - | - |
| 1777788917 | 15° C | 62% | 998.2 hPa | 0 mm | - | - | - |
| 1777788066 | 15° C | 62% | 998.3 hPa | 0 mm | - | - | - |
| 1777787156 | 14.44° C | 64% | 998.2 hPa | 0 mm | - | - | - |
| 1777746629 | 11.67° C | 68% | 1000.6 hPa | 0 mm | - | - | - |
| 1777745717 | 12.22° C | 67% | 1000.6 hPa | 0 mm | - | - | - |
| 1777744868 | 12.22° C | 67% | 1000.6 hPa | 0 mm | - | - | - |
| 1777743958 | 12.22° C | 66% | 1000.6 hPa | 0 mm | - | - | - |
| 1777743052 | 12.78° C | 65% | 1000.7 hPa | 0 mm | - | - | - |
| 1777742140 | 12.78° C | 64% | 1000.6 hPa | 0 mm | - | - | - |
| 1777741230 | 13.33° C | 63% | 1000.6 hPa | 0 mm | - | - | - |
| 1777740318 | 13.33° C | 63% | 1000.6 hPa | 0 mm | - | - | - |
| 1777739468 | 13.89° C | 62% | 1000.6 hPa | 0 mm | - | - | - |
| 1777738558 | 13.89° C | 61% | 1000.7 hPa | 0 mm | - | - | - |
| 1777737654 | 14.44° C | 61% | 1000.8 hPa | 0 mm | - | - | - |
| 1777736742 | 14.44° C | 60% | 1000.9 hPa | 0 mm | - | - | - |
* Rain latest hour (hover to see other rain measurements)
** Current wind speed in m/s (hover to see current wind gust speed)